createdAt,value
2022-08-25T00:00:30.167Z,53.46
2022-08-25T00:02:30.243Z,53.51
2022-08-25T00:03:30.148Z,53.56
2022-08-25T00:05:32.222Z,53.70
2022-08-25T00:06:30.174Z,53.69
2022-08-25T00:07:30.194Z,53.68
2022-08-25T00:08:30.189Z,53.78
2022-08-25T00:10:30.175Z,53.86
2022-08-25T00:13:30.175Z,53.89
2022-08-25T00:14:30.180Z,53.91
2022-08-25T00:15:30.279Z,53.97
2022-08-25T00:16:30.206Z,54.01
2022-08-25T00:17:30.199Z,54.04
2022-08-25T00:18:30.224Z,54.30
2022-08-25T00:19:30.204Z,54.30
2022-08-25T00:20:30.217Z,54.29
2022-08-25T00:21:30.217Z,54.34
2022-08-25T00:22:30.213Z,54.34
2022-08-25T00:23:30.214Z,54.49
2022-08-25T00:25:30.230Z,54.44
2022-08-25T00:27:30.221Z,54.40
2022-08-25T00:28:30.224Z,54.44
2022-08-25T00:29:30.223Z,54.44
2022-08-25T00:34:30.250Z,54.60
2022-08-25T00:36:30.250Z,54.50
2022-08-25T00:38:30.232Z,54.56
2022-08-25T00:39:30.246Z,54.68
2022-08-25T00:41:30.266Z,54.84
2022-08-25T00:42:30.258Z,54.95
2022-08-25T00:43:30.250Z,55.06
2022-08-25T00:44:30.270Z,55.02
2022-08-25T00:45:30.283Z,55.15
2022-08-25T00:46:30.343Z,55.29
2022-08-25T00:48:30.278Z,55.27
2022-08-25T00:49:30.269Z,55.48
2022-08-25T00:50:30.273Z,55.37
2022-08-25T00:51:30.275Z,55.45
2022-08-25T00:52:30.292Z,55.80
2022-08-25T00:55:30.282Z,55.78
2022-08-25T00:56:30.302Z,55.81
2022-08-25T00:57:34.678Z,55.62
2022-08-25T00:59:30.304Z,55.70
2022-08-25T01:02:30.353Z,55.49
2022-08-25T01:03:33.024Z,55.55
2022-08-25T01:05:30.305Z,55.73
2022-08-25T01:06:30.312Z,55.75
2022-08-25T01:07:30.330Z,55.73
2022-08-25T01:08:30.311Z,56.07
2022-08-25T01:09:30.325Z,56.11
2022-08-25T01:10:30.337Z,56.88
2022-08-25T01:11:30.332Z,57.34
2022-08-25T01:12:30.354Z,58.43
2022-08-25T01:14:30.335Z,58.22
2022-08-25T01:15:30.421Z,58.23
2022-08-25T01:16:30.349Z,58.23
2022-08-25T01:17:30.354Z,57.84
2022-08-25T01:18:30.355Z,57.84
2022-08-25T01:19:30.344Z,57.74
2022-08-25T01:20:30.351Z,57.64
2022-08-25T01:21:30.361Z,57.41
2022-08-25T01:22:30.350Z,57.41
2022-08-25T01:23:30.362Z,57.48
2022-08-25T01:24:30.366Z,57.30
2022-08-25T01:25:30.347Z,57.36
2022-08-25T01:26:30.994Z,57.49
2022-08-25T01:27:30.365Z,57.44
2022-08-25T01:28:30.360Z,57.39
2022-08-25T01:29:30.375Z,57.33
2022-08-25T01:31:30.416Z,57.53
2022-08-25T01:34:30.383Z,57.75
2022-08-25T01:35:30.394Z,57.74
2022-08-25T01:37:30.396Z,57.70
2022-08-25T01:38:30.403Z,57.70
2022-08-25T01:39:30.403Z,57.67
2022-08-25T01:40:30.785Z,57.63
2022-08-25T01:41:30.431Z,57.61
2022-08-25T01:44:30.409Z,57.70
2022-08-25T01:46:30.494Z,57.89
2022-08-25T01:47:30.431Z,57.92
2022-08-25T01:48:30.427Z,57.92
2022-08-25T01:49:30.418Z,57.91
2022-08-25T01:50:30.423Z,58.01
2022-08-25T01:51:30.454Z,58.33
2022-08-25T01:54:30.444Z,58.55
2022-08-25T01:56:30.444Z,58.46
2022-08-25T01:57:30.447Z,58.43
2022-08-25T01:58:30.451Z,58.45
2022-08-25T02:00:30.502Z,58.33
2022-08-25T02:01:30.601Z,58.59
2022-08-25T02:02:31.639Z,58.66
2022-08-25T02:03:30.469Z,58.66
2022-08-25T02:04:30.463Z,58.82
2022-08-25T02:05:30.486Z,59.29
2022-08-25T02:06:30.482Z,59.23
2022-08-25T02:07:30.478Z,59.35
2022-08-25T02:08:30.477Z,59.35
2022-08-25T02:10:30.497Z,59.27
2022-08-25T02:11:30.491Z,59.24
2022-08-25T02:12:30.504Z,59.29
2022-08-25T02:13:31.418Z,59.25
2022-08-25T02:14:30.507Z,59.31
2022-08-25T02:15:30.505Z,59.12
2022-08-25T02:18:30.494Z,59.00
2022-08-25T02:19:30.500Z,58.91
2022-08-25T02:20:30.516Z,58.83
2022-08-25T02:21:30.513Z,58.79
2022-08-25T02:22:30.531Z,58.77
2022-08-25T02:23:30.500Z,58.68
2022-08-25T02:24:30.539Z,58.60
2022-08-25T02:25:30.553Z,58.53
2022-08-25T02:26:30.532Z,58.53
2022-08-25T02:28:30.526Z,58.53
2022-08-25T02:31:30.561Z,58.54
2022-08-25T02:32:30.546Z,58.54
2022-08-25T02:33:30.535Z,58.87
2022-08-25T02:34:30.541Z,59.21
2022-08-25T02:35:30.550Z,59.31
2022-08-25T02:36:30.553Z,59.57
2022-08-25T02:37:30.548Z,59.72
2022-08-25T02:38:30.540Z,60.56
2022-08-25T02:39:30.548Z,60.70
2022-08-25T02:40:30.616Z,60.90
2022-08-25T02:41:31.194Z,60.48
2022-08-25T02:42:30.579Z,60.09
2022-08-25T02:43:30.557Z,60.09
2022-08-25T02:44:30.572Z,59.86
2022-08-25T02:45:30.565Z,59.67
2022-08-25T02:46:30.587Z,59.53
2022-08-25T02:47:30.572Z,59.47
2022-08-25T02:48:30.571Z,59.37
2022-08-25T02:49:30.586Z,59.39
2022-08-25T02:50:30.574Z,59.27
2022-08-25T02:51:30.605Z,59.44
2022-08-25T02:53:30.594Z,59.42
2022-08-25T02:54:30.593Z,59.49
2022-08-25T02:55:30.598Z,59.35
2022-08-25T02:58:30.605Z,59.27
2022-08-25T02:59:30.602Z,59.14
2022-08-25T03:01:30.682Z,59.17
2022-08-25T03:09:30.640Z,59.00
2022-08-25T03:10:30.648Z,59.47
2022-08-25T03:11:30.650Z,59.47
2022-08-25T03:12:30.653Z,59.70
2022-08-25T03:14:30.670Z,59.63
2022-08-25T03:15:30.768Z,59.72
2022-08-25T03:16:30.700Z,59.92
2022-08-25T03:18:30.730Z,59.98
2022-08-25T03:19:30.683Z,60.63
2022-08-25T03:20:30.668Z,60.81
2022-08-25T03:21:30.663Z,60.80
2022-08-25T03:22:30.667Z,60.55
2022-08-25T03:23:30.676Z,60.38
2022-08-25T03:24:30.690Z,60.19
2022-08-25T03:25:30.678Z,59.95
2022-08-25T03:26:30.669Z,59.91
2022-08-25T03:27:30.696Z,60.38
2022-08-25T03:28:30.676Z,60.38
2022-08-25T03:29:30.691Z,60.52
2022-08-25T03:30:30.734Z,60.66
2022-08-25T03:31:30.738Z,60.93
2022-08-25T03:32:30.702Z,61.27
2022-08-25T03:34:30.688Z,61.54
2022-08-25T03:35:30.995Z,61.64
2022-08-25T03:36:30.710Z,61.97
2022-08-25T03:37:30.718Z,61.95
2022-08-25T03:38:30.710Z,61.81
2022-08-25T03:39:30.703Z,61.56
2022-08-25T03:40:30.809Z,61.65
2022-08-25T03:41:30.731Z,61.45
2022-08-25T03:42:30.725Z,61.44
2022-08-25T03:43:30.720Z,61.43
2022-08-25T03:44:30.720Z,61.36
2022-08-25T03:45:30.783Z,61.55
2022-08-25T03:46:30.741Z,61.55
2022-08-25T03:47:30.741Z,61.50
2022-08-25T03:48:30.725Z,61.92
2022-08-25T03:49:30.738Z,62.16
2022-08-25T03:50:30.734Z,62.12
2022-08-25T03:51:30.753Z,62.08
2022-08-25T03:52:30.737Z,61.90
2022-08-25T03:53:30.736Z,61.73
2022-08-25T03:54:30.742Z,61.45
2022-08-25T03:55:30.763Z,61.28
2022-08-25T03:56:30.767Z,61.18
2022-08-25T03:57:30.755Z,61.17
2022-08-25T04:00:30.761Z,61.06
2022-08-25T04:01:32.002Z,60.99
2022-08-25T04:02:36.780Z,61.02
2022-08-25T04:03:30.762Z,61.01
2022-08-25T04:04:30.789Z,61.07
2022-08-25T04:05:30.784Z,60.98
2022-08-25T04:06:31.409Z,61.06
2022-08-25T04:07:30.764Z,61.06
2022-08-25T04:08:30.780Z,61.04
2022-08-25T04:09:34.095Z,61.12
2022-08-25T04:10:30.776Z,61.11
2022-08-25T04:11:30.798Z,61.09
2022-08-25T04:13:30.822Z,61.27
2022-08-25T04:14:30.820Z,61.37
2022-08-25T04:15:30.800Z,61.37
2022-08-25T04:16:30.852Z,61.50
2022-08-25T04:17:30.806Z,61.45
2022-08-25T04:18:30.813Z,61.51
2022-08-25T04:20:30.803Z,61.56
2022-08-25T04:22:30.820Z,61.43
2022-08-25T04:23:30.816Z,61.48
2022-08-25T04:24:30.842Z,61.43
2022-08-25T04:25:30.837Z,61.47
2022-08-25T04:30:30.865Z,61.39
2022-08-25T04:33:30.844Z,61.46
2022-08-25T04:34:31.535Z,61.44
2022-08-25T04:35:30.855Z,61.38
2022-08-25T04:36:30.850Z,61.36
2022-08-25T04:39:30.859Z,61.26
2022-08-25T04:40:30.890Z,61.24
2022-08-25T04:41:30.894Z,61.27
2022-08-25T04:43:30.882Z,61.27
2022-08-25T04:44:30.902Z,61.17
2022-08-25T04:45:30.934Z,61.20
2022-08-25T04:46:30.896Z,61.17
2022-08-25T04:48:30.891Z,61.25
2022-08-25T04:50:30.925Z,61.33
2022-08-25T04:51:30.900Z,61.39
2022-08-25T04:53:30.911Z,61.29
2022-08-25T04:55:30.904Z,61.30
2022-08-25T04:57:30.909Z,61.21
2022-08-25T04:59:30.902Z,61.26
2022-08-25T05:03:30.944Z,61.30
2022-08-25T05:04:31.014Z,61.31
2022-08-25T05:05:30.933Z,61.28
2022-08-25T05:07:30.934Z,61.23
2022-08-25T05:08:30.939Z,61.23
2022-08-25T05:10:30.925Z,61.19
2022-08-25T05:11:30.941Z,61.19
2022-08-25T05:12:30.945Z,61.19
2022-08-25T05:13:30.954Z,61.10
2022-08-25T05:19:30.973Z,61.19
2022-08-25T05:20:30.953Z,61.16
2022-08-25T05:21:30.986Z,61.06
2022-08-25T05:22:30.982Z,61.05
2022-08-25T05:23:30.965Z,61.10
2022-08-25T05:24:30.983Z,61.07
2022-08-25T05:25:30.996Z,60.99
2022-08-25T05:26:31.010Z,60.95
2022-08-25T05:27:30.983Z,60.88
2022-08-25T05:28:30.996Z,60.86
2022-08-25T05:29:30.988Z,60.78
2022-08-25T05:30:30.977Z,60.86
2022-08-25T05:31:31.067Z,60.86
2022-08-25T05:32:30.991Z,60.79
2022-08-25T05:33:31.399Z,60.78
2022-08-25T05:34:31.012Z,60.64
2022-08-25T05:35:31.017Z,60.67
2022-08-25T05:36:31.026Z,60.58
2022-08-25T05:37:31.010Z,60.56
2022-08-25T05:38:31.019Z,60.52
2022-08-25T05:39:31.031Z,60.51
2022-08-25T05:40:31.074Z,60.48
2022-08-25T05:41:31.027Z,60.48
2022-08-25T05:42:31.030Z,60.41
2022-08-25T05:43:31.017Z,60.33
2022-08-25T05:44:31.024Z,60.31
2022-08-25T05:45:31.073Z,60.05
2022-08-25T05:46:31.845Z,60.05
2022-08-25T05:47:31.031Z,59.87
2022-08-25T05:48:31.029Z,59.78
2022-08-25T05:49:31.031Z,59.64
2022-08-25T05:50:31.040Z,59.63
2022-08-25T05:51:31.065Z,59.54
2022-08-25T05:52:31.058Z,59.40
2022-08-25T05:53:31.116Z,59.29
2022-08-25T05:54:31.064Z,59.22
2022-08-25T05:55:31.043Z,59.14
2022-08-25T05:56:31.081Z,58.92
2022-08-25T05:57:31.054Z,58.81
2022-08-25T05:58:31.068Z,58.79
2022-08-25T05:59:31.052Z,58.74
2022-08-25T06:00:31.084Z,58.56
2022-08-25T06:01:31.114Z,58.38
2022-08-25T06:02:31.074Z,58.22
2022-08-25T06:03:31.155Z,58.15
2022-08-25T06:04:31.114Z,57.91
2022-08-25T06:05:31.091Z,57.91
2022-08-25T06:06:31.074Z,57.86
2022-08-25T06:07:31.088Z,57.78
2022-08-25T06:08:31.094Z,57.66
2022-08-25T06:09:31.113Z,57.21
2022-08-25T06:10:31.100Z,57.21
2022-08-25T06:11:31.094Z,57.48
2022-08-25T06:12:31.110Z,57.30
2022-08-25T06:14:31.117Z,56.88
2022-08-25T06:16:31.230Z,56.87
2022-08-25T06:17:31.118Z,56.78
2022-08-25T06:18:31.102Z,56.83
2022-08-25T06:19:31.133Z,56.56
2022-08-25T06:20:31.130Z,56.70
2022-08-25T06:21:31.130Z,56.60
2022-08-25T06:22:31.144Z,56.47
2022-08-25T06:23:31.127Z,56.53
2022-08-25T06:24:31.140Z,56.46
2022-08-25T06:25:31.125Z,56.35
2022-08-25T06:26:31.138Z,56.40
2022-08-25T06:27:31.132Z,56.26
2022-08-25T06:28:31.151Z,56.17
2022-08-25T06:29:31.161Z,55.66
2022-08-25T06:30:31.138Z,55.66
2022-08-25T06:31:31.314Z,55.52
2022-08-25T06:32:31.175Z,55.58
2022-08-25T06:33:31.172Z,55.58
2022-08-25T06:34:31.156Z,55.49
2022-08-25T06:35:31.157Z,55.42
2022-08-25T06:36:31.168Z,55.22
2022-08-25T06:37:31.168Z,55.00
2022-08-25T06:38:31.171Z,54.79
2022-08-25T06:39:31.170Z,54.34
2022-08-25T06:40:31.224Z,54.18
2022-08-25T06:41:37.141Z,54.04
2022-08-25T06:42:31.171Z,53.83
2022-08-25T06:43:31.195Z,53.54
2022-08-25T06:44:31.177Z,53.54
2022-08-25T06:45:31.174Z,53.43
2022-08-25T06:46:36.415Z,52.96
2022-08-25T06:47:31.189Z,52.88
2022-08-25T06:48:31.181Z,51.95
2022-08-25T06:49:34.265Z,52.29
2022-08-25T06:50:31.198Z,52.12
2022-08-25T06:51:31.197Z,51.79
2022-08-25T06:52:31.211Z,51.18
2022-08-25T06:53:31.247Z,51.36
2022-08-25T06:54:31.221Z,51.59
2022-08-25T06:55:31.209Z,51.49
2022-08-25T06:56:31.209Z,51.35
2022-08-25T06:57:31.242Z,50.95
2022-08-25T06:58:31.244Z,50.61
2022-08-25T06:59:32.161Z,49.62
2022-08-25T07:00:31.598Z,49.76
2022-08-25T07:01:31.364Z,50.29
2022-08-25T07:02:31.304Z,50.03
2022-08-25T07:03:31.247Z,49.11
2022-08-25T07:04:31.276Z,49.16
2022-08-25T07:05:40.886Z,49.16
2022-08-25T07:06:31.245Z,48.30
2022-08-25T07:07:43.820Z,49.07
2022-08-25T07:08:31.279Z,49.22
2022-08-25T07:09:31.270Z,49.22
2022-08-25T07:10:31.283Z,48.34
2022-08-25T07:11:31.293Z,47.83
2022-08-25T07:12:31.272Z,47.83
2022-08-25T07:13:31.288Z,47.34
2022-08-25T07:14:31.261Z,47.34
2022-08-25T07:15:31.280Z,47.24
2022-08-25T07:16:31.328Z,46.71
2022-08-25T07:17:31.288Z,46.77
2022-08-25T07:18:31.280Z,45.30
2022-08-25T07:19:31.285Z,45.30
2022-08-25T07:20:31.282Z,45.68
2022-08-25T07:21:33.407Z,45.75
2022-08-25T07:22:31.300Z,45.59
2022-08-25T07:23:31.305Z,45.28
2022-08-25T07:24:31.289Z,45.01
2022-08-25T07:25:31.341Z,43.89
2022-08-25T07:26:37.642Z,43.89
2022-08-25T07:27:31.321Z,43.23
2022-08-25T07:28:31.302Z,43.23
2022-08-25T07:29:32.725Z,41.93
2022-08-25T07:30:31.313Z,41.79
2022-08-25T07:31:31.341Z,41.65
2022-08-25T07:32:31.323Z,41.75
2022-08-25T07:33:31.320Z,41.75
2022-08-25T07:34:31.310Z,42.00
2022-08-25T07:35:36.579Z,42.09
2022-08-25T07:36:31.344Z,41.85
2022-08-25T07:37:47.968Z,41.10
2022-08-25T07:38:31.336Z,40.70
2022-08-25T07:39:31.341Z,40.71
2022-08-25T07:40:31.456Z,40.90
2022-08-25T07:41:31.350Z,40.02
2022-08-25T07:42:31.342Z,40.66
2022-08-25T07:43:31.347Z,40.38
2022-08-25T07:44:31.330Z,39.55
2022-08-25T07:45:31.350Z,39.82
2022-08-25T07:46:31.430Z,39.20
2022-08-25T07:47:31.352Z,38.73
2022-08-25T07:48:31.349Z,38.80
2022-08-25T07:49:36.075Z,38.45
2022-08-25T07:50:31.365Z,38.64
2022-08-25T07:51:31.377Z,38.17
2022-08-25T07:52:31.357Z,38.17
2022-08-25T07:53:31.366Z,38.18
2022-08-25T07:54:34.500Z,38.11
2022-08-25T07:55:31.376Z,37.63
2022-08-25T07:56:31.364Z,37.28
2022-08-25T07:57:31.420Z,37.26
2022-08-25T07:58:31.401Z,37.26
2022-08-25T07:59:40.113Z,36.91
2022-08-25T08:00:31.374Z,36.62
2022-08-25T08:01:31.424Z,36.63
2022-08-25T08:02:31.439Z,36.35
2022-08-25T08:03:45.266Z,36.23
2022-08-25T08:04:31.396Z,35.56
2022-08-25T08:05:31.400Z,35.80
2022-08-25T08:06:31.386Z,35.45
2022-08-25T08:07:43.087Z,35.36
2022-08-25T08:08:31.414Z,35.22
2022-08-25T08:09:31.394Z,34.59
2022-08-25T08:10:54.102Z,34.60
2022-08-25T08:11:31.423Z,34.74
2022-08-25T08:12:31.406Z,34.05
2022-08-25T08:13:31.413Z,33.91
2022-08-25T08:14:31.442Z,34.04
2022-08-25T08:15:31.409Z,33.29
2022-08-25T08:16:31.508Z,33.73
2022-08-25T08:17:31.434Z,33.40
2022-08-25T08:18:31.448Z,33.14
2022-08-25T08:19:31.440Z,33.40
2022-08-25T08:20:31.441Z,33.40
2022-08-25T08:21:31.436Z,33.49
2022-08-25T08:22:31.455Z,33.20
2022-08-25T08:23:31.441Z,33.03
2022-08-25T08:24:44.575Z,33.13
2022-08-25T08:25:31.453Z,33.01
2022-08-25T08:26:55.513Z,32.97
2022-08-25T08:27:31.466Z,32.83
2022-08-25T08:28:31.452Z,32.08
2022-08-25T08:29:31.642Z,32.07
2022-08-25T08:30:31.456Z,32.41
2022-08-25T08:31:31.492Z,32.58
2022-08-25T08:32:47.780Z,31.38
2022-08-25T08:33:31.457Z,31.38
2022-08-25T08:36:31.487Z,31.11
2022-08-25T08:37:31.476Z,31.30
2022-08-25T08:38:31.491Z,31.30
2022-08-25T08:40:31.572Z,31.87
2022-08-25T08:41:36.742Z,31.92
2022-08-25T08:42:31.507Z,31.97
2022-08-25T08:43:33.293Z,32.03
2022-08-25T08:44:31.499Z,31.83
2022-08-25T08:45:31.497Z,31.82
2022-08-25T08:46:31.543Z,31.76
2022-08-25T08:47:31.522Z,31.22
2022-08-25T08:48:31.517Z,30.81
2022-08-25T08:49:31.508Z,30.37
2022-08-25T08:50:33.453Z,30.66
2022-08-25T08:51:32.674Z,30.83
2022-08-25T08:52:31.524Z,31.05
2022-08-25T08:53:34.227Z,30.93
2022-08-25T08:54:34.022Z,30.82
2022-08-25T08:55:31.533Z,30.91
2022-08-25T08:56:31.644Z,30.85
2022-08-25T08:57:31.537Z,30.97
2022-08-25T08:58:31.536Z,31.49
2022-08-25T08:59:31.552Z,31.50
2022-08-25T09:00:31.536Z,31.37
2022-08-25T09:01:31.597Z,31.41
2022-08-25T09:02:39.104Z,30.70
2022-08-25T09:03:31.652Z,30.74
2022-08-25T09:04:31.553Z,30.69
2022-08-25T09:05:31.558Z,30.49
2022-08-25T09:06:31.572Z,29.90
2022-08-25T09:07:31.564Z,29.81
2022-08-25T09:08:31.579Z,29.80
2022-08-25T09:09:35.711Z,29.70
2022-08-25T09:10:31.564Z,29.57
2022-08-25T09:11:31.572Z,29.39
2022-08-25T09:12:31.579Z,29.17
2022-08-25T09:13:31.580Z,29.22
2022-08-25T09:14:31.566Z,28.97
2022-08-25T09:15:31.625Z,28.82
2022-08-25T09:16:31.780Z,28.55
2022-08-25T09:17:31.581Z,28.86
2022-08-25T09:18:31.587Z,28.50
2022-08-25T09:19:32.124Z,28.40
2022-08-25T09:20:31.613Z,28.40
2022-08-25T09:21:31.610Z,28.34
2022-08-25T09:22:35.182Z,27.97
2022-08-25T09:23:31.607Z,27.97
2022-08-25T09:24:31.607Z,27.96
2022-08-25T09:25:52.400Z,27.79
2022-08-25T09:26:31.606Z,27.18
2022-08-25T09:27:31.633Z,27.57
2022-08-25T09:28:31.612Z,27.72
2022-08-25T09:29:31.603Z,27.97
2022-08-25T09:30:31.618Z,27.73
2022-08-25T09:31:31.795Z,27.97
2022-08-25T09:32:31.809Z,27.97
2022-08-25T09:33:35.530Z,27.92
2022-08-25T09:34:31.627Z,27.70
2022-08-25T09:35:31.640Z,27.52
2022-08-25T09:36:36.735Z,27.11
2022-08-25T09:37:31.641Z,27.04
2022-08-25T09:38:31.659Z,26.93
2022-08-25T09:39:31.647Z,26.97
2022-08-25T09:40:31.742Z,26.49
2022-08-25T09:41:31.651Z,25.88
2022-08-25T09:42:31.651Z,26.92
2022-08-25T09:43:31.652Z,27.12
2022-08-25T09:45:31.665Z,27.67
2022-08-25T09:46:31.721Z,27.83
2022-08-25T09:47:31.666Z,27.90
2022-08-25T09:48:31.646Z,27.74
2022-08-25T09:49:31.660Z,28.09
2022-08-25T09:50:31.683Z,28.64
2022-08-25T09:51:42.136Z,28.70
2022-08-25T09:52:31.672Z,29.00
2022-08-25T09:53:33.668Z,28.85
2022-08-25T09:54:36.274Z,28.81
2022-08-25T09:55:32.522Z,28.72
2022-08-25T09:56:31.719Z,28.71
2022-08-25T09:57:31.691Z,28.35
2022-08-25T09:58:31.712Z,28.13
2022-08-25T09:59:35.027Z,28.33
2022-08-25T10:00:31.699Z,28.19
2022-08-25T10:01:32.109Z,28.20
2022-08-25T10:02:31.713Z,28.22
2022-08-25T10:04:31.711Z,27.84
2022-08-25T10:05:31.845Z,28.09
2022-08-25T10:06:31.730Z,28.16
2022-08-25T10:07:31.715Z,28.34
2022-08-25T10:08:31.726Z,28.08
2022-08-25T10:09:31.722Z,27.77
2022-08-25T10:10:32.502Z,27.74
2022-08-25T10:11:31.733Z,27.94
2022-08-25T10:12:31.757Z,28.39
2022-08-25T10:13:31.723Z,28.21
2022-08-25T10:14:31.730Z,28.07
2022-08-25T10:15:31.795Z,28.22
2022-08-25T10:16:35.734Z,28.30
2022-08-25T10:17:31.754Z,28.30
2022-08-25T10:18:31.736Z,28.02
2022-08-25T10:19:31.741Z,28.06
2022-08-25T10:20:35.009Z,28.26
2022-08-25T10:21:31.764Z,28.45
2022-08-25T10:22:31.765Z,27.72
2022-08-25T10:23:31.769Z,28.11
2022-08-25T10:24:31.760Z,28.08
2022-08-25T10:25:31.777Z,27.81
2022-08-25T10:26:34.862Z,27.78
2022-08-25T10:27:31.767Z,27.89
2022-08-25T10:28:31.774Z,28.16
2022-08-25T10:29:32.488Z,28.27
2022-08-25T10:30:31.806Z,28.27
2022-08-25T10:31:33.045Z,27.40
2022-08-25T10:32:31.779Z,26.81
2022-08-25T10:33:31.797Z,27.00
2022-08-25T10:34:31.806Z,26.82
2022-08-25T10:35:31.840Z,27.17
2022-08-25T10:36:31.798Z,27.12
2022-08-25T10:37:32.660Z,27.17
2022-08-25T10:38:36.032Z,27.44
2022-08-25T10:39:36.300Z,27.69
2022-08-25T10:40:31.879Z,27.93
2022-08-25T10:41:31.827Z,27.86
2022-08-25T10:42:31.818Z,27.31
2022-08-25T10:43:31.830Z,27.22
2022-08-25T10:45:31.835Z,27.48
2022-08-25T10:46:31.878Z,27.85
2022-08-25T10:47:31.829Z,28.06
2022-08-25T10:48:31.842Z,27.75
2022-08-25T10:49:31.827Z,27.75
2022-08-25T10:50:31.834Z,27.89
2022-08-25T10:51:31.833Z,27.62
2022-08-25T10:52:31.829Z,27.80
2022-08-25T10:53:31.858Z,28.00
2022-08-25T10:54:31.870Z,28.16
2022-08-25T10:55:31.899Z,28.29
2022-08-25T10:56:31.851Z,28.12
2022-08-25T10:57:31.847Z,28.17
2022-08-25T10:58:31.848Z,28.33
2022-08-25T10:59:31.863Z,28.10
2022-08-25T11:00:31.965Z,27.73
2022-08-25T11:01:38.981Z,27.81
2022-08-25T11:04:31.867Z,28.05
2022-08-25T11:05:31.981Z,27.90
2022-08-25T11:06:31.873Z,28.00
2022-08-25T11:07:31.890Z,27.92
2022-08-25T11:08:31.891Z,27.83
2022-08-25T11:09:31.902Z,28.22
2022-08-25T11:11:31.885Z,28.58
2022-08-25T11:12:31.904Z,28.48
2022-08-25T11:13:31.908Z,28.37
2022-08-25T11:14:34.553Z,28.47
2022-08-25T11:15:31.902Z,28.83
2022-08-25T11:16:31.938Z,29.14
2022-08-25T11:19:32.749Z,29.18
2022-08-25T11:21:31.928Z,29.39
2022-08-25T11:22:31.921Z,29.30
2022-08-25T11:23:31.920Z,29.38
2022-08-25T11:24:31.925Z,29.36
2022-08-25T11:27:31.949Z,29.00
2022-08-25T11:28:31.958Z,28.92
2022-08-25T11:29:31.951Z,29.36
2022-08-25T11:30:31.977Z,29.36
2022-08-25T11:32:31.956Z,29.12
2022-08-25T11:33:31.946Z,28.52
2022-08-25T11:34:31.959Z,28.90
2022-08-25T11:35:31.957Z,29.15
2022-08-25T11:36:31.957Z,28.77
2022-08-25T11:37:31.984Z,29.44
2022-08-25T11:38:31.958Z,29.44
2022-08-25T11:39:34.578Z,29.70
2022-08-25T11:40:32.054Z,29.68
2022-08-25T11:41:31.977Z,29.52
2022-08-25T11:42:31.966Z,29.30
2022-08-25T11:43:35.699Z,29.31
2022-08-25T11:44:31.980Z,29.44
2022-08-25T11:45:32.002Z,29.60
2022-08-25T11:46:32.054Z,30.24
2022-08-25T11:47:31.982Z,30.49
2022-08-25T11:48:32.004Z,30.76
2022-08-25T11:49:31.997Z,30.77
2022-08-25T11:50:32.001Z,31.00
2022-08-25T11:51:33.769Z,31.00
2022-08-25T11:52:31.998Z,30.96
2022-08-25T11:53:31.998Z,30.65
2022-08-25T11:54:32.044Z,29.92
2022-08-25T11:55:32.035Z,29.92
2022-08-25T11:56:31.998Z,29.75
2022-08-25T11:57:32.033Z,29.55
2022-08-25T11:58:32.035Z,29.75
2022-08-25T11:59:32.053Z,30.03
2022-08-25T12:00:32.051Z,30.03
2022-08-25T12:01:32.008Z,30.07
2022-08-25T12:02:32.042Z,29.76
2022-08-25T12:03:32.051Z,29.94
2022-08-25T12:04:32.184Z,30.08
2022-08-25T12:05:32.107Z,30.27
2022-08-25T12:06:32.060Z,30.27
2022-08-25T12:07:32.049Z,30.02
2022-08-25T12:09:32.081Z,30.04
2022-08-25T12:10:32.055Z,30.22
2022-08-25T12:11:32.047Z,30.12
2022-08-25T12:12:32.067Z,29.77
2022-08-25T12:13:32.067Z,29.91
2022-08-25T12:14:32.067Z,29.53
2022-08-25T12:15:32.069Z,28.96
2022-08-25T12:16:32.137Z,29.37
2022-08-25T12:17:32.061Z,29.42
2022-08-25T12:18:32.087Z,29.08
2022-08-25T12:19:32.072Z,29.43
2022-08-25T12:20:32.077Z,29.72
2022-08-25T12:21:32.098Z,29.73
2022-08-25T12:22:32.094Z,29.89
2022-08-25T12:23:32.091Z,29.82
2022-08-25T12:24:32.081Z,29.91
2022-08-25T12:25:33.838Z,29.94
2022-08-25T12:26:32.125Z,29.70
2022-08-25T12:27:33.763Z,30.12
2022-08-25T12:28:34.845Z,30.18
2022-08-25T12:29:32.122Z,29.70
2022-08-25T12:30:32.163Z,29.70
2022-08-25T12:31:32.680Z,28.98
2022-08-25T12:32:32.115Z,28.82
2022-08-25T12:33:32.132Z,29.25
2022-08-25T12:35:32.141Z,29.27
2022-08-25T12:36:33.324Z,29.20
2022-08-25T12:37:32.132Z,29.05
2022-08-25T12:38:32.137Z,29.17
2022-08-25T12:39:32.152Z,28.81
2022-08-25T12:40:32.249Z,28.81
2022-08-25T12:41:33.717Z,28.97
2022-08-25T12:42:32.132Z,29.04
2022-08-25T12:43:33.962Z,28.98
2022-08-25T12:44:32.132Z,28.98
2022-08-25T12:45:32.253Z,28.84
2022-08-25T12:46:32.151Z,29.21
2022-08-25T12:48:32.160Z,29.43
2022-08-25T12:49:32.152Z,29.39
2022-08-25T12:50:32.160Z,29.31
2022-08-25T12:51:32.173Z,29.43
2022-08-25T12:52:32.160Z,29.20
2022-08-25T12:53:32.166Z,29.19
2022-08-25T12:54:32.166Z,29.20
2022-08-25T12:55:32.175Z,29.37
2022-08-25T12:56:32.176Z,29.54
2022-08-25T12:57:32.183Z,29.45
2022-08-25T12:58:49.886Z,29.50
2022-08-25T12:59:32.207Z,29.28
2022-08-25T13:00:32.183Z,29.61
2022-08-25T13:02:32.394Z,29.64
2022-08-25T13:03:32.399Z,28.93
2022-08-25T13:04:32.204Z,28.93
2022-08-25T13:05:33.670Z,29.14
2022-08-25T13:06:32.216Z,29.33
2022-08-25T13:07:32.207Z,29.51
2022-08-25T13:08:34.042Z,29.54
2022-08-25T13:09:32.256Z,28.96
2022-08-25T13:10:32.218Z,29.20
2022-08-25T13:11:32.281Z,29.44
2022-08-25T13:12:32.223Z,28.96
2022-08-25T13:13:32.213Z,29.01
2022-08-25T13:15:32.220Z,29.48
2022-08-25T13:16:32.360Z,29.66
2022-08-25T13:17:33.788Z,29.58
2022-08-25T13:18:32.456Z,29.65
2022-08-25T13:19:34.731Z,29.12
2022-08-25T13:20:32.246Z,29.38
2022-08-25T13:21:32.251Z,29.66
2022-08-25T13:22:32.237Z,29.40
2022-08-25T13:23:32.257Z,29.19
2022-08-25T13:24:32.254Z,29.31
2022-08-25T13:25:32.856Z,29.12
2022-08-25T13:26:32.250Z,29.00
2022-08-25T13:27:32.242Z,28.74
2022-08-25T13:28:32.260Z,29.18
2022-08-25T13:29:35.151Z,28.75
2022-08-25T13:30:32.279Z,28.57
2022-08-25T13:31:32.311Z,28.63
2022-08-25T13:32:34.424Z,28.46
2022-08-25T13:33:32.273Z,28.91
2022-08-25T13:34:34.856Z,29.23
2022-08-25T13:35:32.762Z,29.12
2022-08-25T13:36:32.279Z,29.17
2022-08-25T13:37:32.280Z,29.08
2022-08-25T13:38:32.329Z,28.86
2022-08-25T13:39:55.473Z,28.95
2022-08-25T13:40:32.351Z,28.65
2022-08-25T13:41:34.046Z,28.72
2022-08-25T13:42:32.296Z,28.74
2022-08-25T13:43:32.313Z,28.46
2022-08-25T13:44:32.316Z,28.40
2022-08-25T13:45:32.362Z,28.95
2022-08-25T13:46:32.300Z,28.89
2022-08-25T13:47:32.319Z,28.87
2022-08-25T13:48:32.325Z,28.88
2022-08-25T13:49:32.324Z,28.50
2022-08-25T13:51:32.324Z,28.13
2022-08-25T13:52:32.339Z,28.18
2022-08-25T13:55:38.239Z,27.78
2022-08-25T13:56:38.493Z,27.81
2022-08-25T13:57:32.348Z,27.78
2022-08-25T13:58:39.686Z,28.13
2022-08-25T13:59:32.323Z,28.62
2022-08-25T14:00:32.535Z,28.68
2022-08-25T14:01:48.753Z,29.19
2022-08-25T14:02:32.447Z,29.29
2022-08-25T14:03:33.288Z,29.07
2022-08-25T14:04:32.577Z,29.32
2022-08-25T14:05:32.362Z,29.27
2022-08-25T14:06:32.361Z,29.30
2022-08-25T14:07:34.030Z,29.38
2022-08-25T14:08:32.844Z,29.20
2022-08-25T14:09:32.371Z,29.52
2022-08-25T14:10:32.377Z,28.88
2022-08-25T14:11:32.369Z,28.55
2022-08-25T14:12:32.402Z,28.49
2022-08-25T14:13:32.409Z,28.83
2022-08-25T14:14:32.398Z,28.83
2022-08-25T14:15:33.391Z,28.89
2022-08-25T14:16:32.446Z,29.00
2022-08-25T14:17:39.800Z,28.87
2022-08-25T14:21:32.410Z,28.75
2022-08-25T14:22:32.409Z,28.88
2022-08-25T14:23:32.409Z,28.64
2022-08-25T14:25:32.413Z,28.57
2022-08-25T14:27:38.791Z,28.72
2022-08-25T14:28:32.500Z,28.85
2022-08-25T14:29:32.435Z,28.40
2022-08-25T14:30:32.423Z,28.43
2022-08-25T14:31:32.464Z,28.44
2022-08-25T14:33:32.444Z,28.57
2022-08-25T14:34:32.433Z,28.65
2022-08-25T14:35:32.450Z,28.77
2022-08-25T14:36:32.447Z,28.79
2022-08-25T14:37:32.648Z,28.62
2022-08-25T14:39:32.467Z,27.93
2022-08-25T14:40:34.466Z,27.85
2022-08-25T14:41:32.442Z,27.85
2022-08-25T14:42:32.456Z,28.16
2022-08-25T14:44:32.482Z,28.46
2022-08-25T14:45:32.518Z,28.08
2022-08-25T14:46:32.468Z,28.21
2022-08-25T14:47:32.479Z,28.54
2022-08-25T14:48:32.472Z,28.70